createdAt,value
2023-01-28T00:00:18.698Z,4.5
2023-01-28T00:01:17.465Z,4.599
2023-01-28T00:03:17.315Z,5
2023-01-28T00:06:16.948Z,4.900
2023-01-28T00:07:17.396Z,5.099
2023-01-28T00:08:17.465Z,5
2023-01-28T00:09:16.718Z,4.800
2023-01-28T00:10:17.048Z,4.599
2023-01-28T00:11:17.443Z,4.900
2023-01-28T00:12:17.014Z,5
2023-01-28T00:13:17.424Z,4.900
2023-01-28T00:15:17.596Z,4.699
2023-01-28T00:16:17.468Z,5.099
2023-01-28T00:17:17.418Z,5.300
2023-01-28T00:18:17.725Z,5.099
2023-01-28T00:19:17.409Z,5.400
2023-01-28T00:20:17.549Z,5
2023-01-28T00:22:17.067Z,4.800
2023-01-28T00:23:17.370Z,5.199
2023-01-28T00:24:17.413Z,5.300
2023-01-28T00:25:17.839Z,4.699
2023-01-28T00:26:17.310Z,4.800
2023-01-28T00:28:17.430Z,5
2023-01-28T00:29:17.673Z,4.699
2023-01-28T00:30:17.697Z,4.800
2023-01-28T00:32:17.758Z,5.099
2023-01-28T00:33:17.064Z,5.400
2023-01-28T00:34:16.837Z,5.5
2023-01-28T00:35:17.607Z,5.199
2023-01-28T00:37:17.547Z,4.800
2023-01-28T00:38:17.021Z,5
2023-01-28T00:39:17.500Z,4.800
2023-01-28T00:41:17.491Z,4.900
2023-01-28T00:42:17.442Z,4.800
2023-01-28T00:43:17.598Z,4.599
2023-01-28T00:45:17.766Z,4.699
2023-01-28T00:46:17.371Z,4.900
2023-01-28T00:47:16.842Z,4.599
2023-01-28T00:48:17.009Z,4.5
2023-01-28T00:50:17.167Z,4.599
2023-01-28T00:51:17.166Z,4.800
2023-01-28T00:52:17.077Z,4.199
2023-01-28T00:53:17.331Z,4.5
2023-01-28T00:55:17.697Z,4.599
2023-01-28T00:56:15.904Z,4.699
2023-01-28T00:57:17.156Z,4.800
2023-01-28T00:58:16.866Z,4.300
2023-01-28T00:59:16.802Z,4.5
2023-01-28T01:00:32.060Z,4.400
2023-01-28T01:01:19.921Z,4.599
2023-01-28T01:02:17.616Z,4.699
2023-01-28T01:03:17.705Z,4.599
2023-01-28T01:05:17.371Z,5.099
2023-01-28T01:06:17.558Z,4.5
2023-01-28T01:08:17.022Z,4.599
2023-01-28T01:09:17.113Z,4.400
2023-01-28T01:10:17.288Z,4.599
2023-01-28T01:11:17.299Z,4.699
2023-01-28T01:12:17.398Z,4.599
2023-01-28T01:13:16.827Z,4.699
2023-01-28T01:14:17.701Z,4.800
2023-01-28T01:15:17.364Z,4.599
2023-01-28T01:16:17.134Z,4.400
2023-01-28T01:17:17.159Z,4.300
2023-01-28T01:19:17.637Z,4.400
2023-01-28T01:20:17.818Z,4.300
2023-01-28T01:21:17.010Z,4.199
2023-01-28T01:22:17.045Z,4.800
2023-01-28T01:23:15.023Z,4.5
2023-01-28T01:24:17.282Z,4.300
2023-01-28T01:25:17.844Z,4.400
2023-01-28T01:26:17.080Z,4.599
2023-01-28T01:27:17.080Z,4.400
2023-01-28T01:28:17.089Z,4.300
2023-01-28T01:29:17.281Z,4.699
2023-01-28T01:30:17.635Z,4.199
2023-01-28T01:31:17.067Z,4.5
2023-01-28T01:32:17.147Z,4.400
2023-01-28T01:33:16.822Z,4.199
2023-01-28T01:34:17.002Z,4.5
2023-01-28T01:35:17.542Z,4.300
2023-01-28T01:36:17.259Z,4.5
2023-01-28T01:37:17.131Z,4.800
2023-01-28T01:38:16.972Z,4.599
2023-01-28T01:39:16.866Z,4.400
2023-01-28T01:41:16.854Z,4.300
2023-01-28T01:42:17.364Z,4.699
2023-01-28T01:44:17.207Z,4.199
2023-01-28T01:45:17.455Z,4.5
2023-01-28T01:46:16.857Z,4
2023-01-28T01:47:16.950Z,4.5
2023-01-28T01:48:17.561Z,4.599
2023-01-28T01:49:17.426Z,4.300
2023-01-28T01:51:17.747Z,4.5
2023-01-28T01:52:17.674Z,4.300
2023-01-28T01:53:17.727Z,4.199
2023-01-28T01:54:17.401Z,4.699
2023-01-28T01:56:17.376Z,4.099
2023-01-28T01:57:17.147Z,4.199
2023-01-28T01:58:17.138Z,4.5
2023-01-28T01:59:17.222Z,4.300
2023-01-28T02:00:17.990Z,4.400
2023-01-28T02:01:17.071Z,4.099
2023-01-28T02:02:17.265Z,4.300
2023-01-28T02:03:16.879Z,4.199
2023-01-28T02:05:17.909Z,4
2023-01-28T02:06:17.170Z,4.199
2023-01-28T02:07:17.116Z,4.099
2023-01-28T02:08:16.847Z,4.400
2023-01-28T02:10:17.024Z,4.5
2023-01-28T02:11:16.963Z,4.699
2023-01-28T02:12:16.935Z,4.400
2023-01-28T02:13:17.182Z,4.699
2023-01-28T02:14:29.453Z,4.400
2023-01-28T02:15:17.482Z,4.900
2023-01-28T02:17:17.253Z,4.5
2023-01-28T02:20:17.717Z,4.699
2023-01-28T02:21:17.666Z,4.599
2023-01-28T02:22:17.809Z,4.300
2023-01-28T02:23:16.951Z,4.599
2023-01-28T02:25:17.698Z,5
2023-01-28T02:26:16.797Z,4.699
2023-01-28T02:27:17.915Z,4.900
2023-01-28T02:28:17.062Z,4.800
2023-01-28T02:29:17.513Z,5
2023-01-28T02:30:17.224Z,4.699
2023-01-28T02:32:16.857Z,4.800
2023-01-28T02:33:17.098Z,5.300
2023-01-28T02:34:16.851Z,5
2023-01-28T02:35:17.351Z,4.900
2023-01-28T02:36:17.123Z,5.400
2023-01-28T02:37:17.106Z,5.199
2023-01-28T02:38:16.855Z,5.300
2023-01-28T02:40:17.099Z,5.400
2023-01-28T02:41:17.364Z,5.099
2023-01-28T02:43:16.922Z,5.099
2023-01-28T02:45:17.238Z,5
2023-01-28T02:46:17.293Z,4.800
2023-01-28T02:47:17.297Z,4.900
2023-01-28T02:48:17.060Z,4.800
2023-01-28T02:49:17.665Z,5.199
2023-01-28T02:51:18.051Z,5.300
2023-01-28T02:52:17.468Z,5.199
2023-01-28T02:53:17.554Z,4.400
2023-01-28T02:54:16.831Z,5.400
2023-01-28T02:55:17.591Z,5
2023-01-28T02:56:18.190Z,4.599
2023-01-28T02:57:16.940Z,4.900
2023-01-28T02:58:16.832Z,4.800
2023-01-28T02:59:16.870Z,5
2023-01-28T03:00:17.903Z,5.400
2023-01-28T03:01:17.458Z,5.099
2023-01-28T03:02:17.343Z,5.199
2023-01-28T03:03:17.471Z,5.5
2023-01-28T03:04:17.086Z,5.300
2023-01-28T03:05:17.447Z,5
2023-01-28T03:06:17.247Z,5.199
2023-01-28T03:07:17.424Z,5.400
2023-01-28T03:08:17.749Z,5.300
2023-01-28T03:09:17.740Z,5.199
2023-01-28T03:10:17.721Z,5.099
2023-01-28T03:12:17.321Z,5.199
2023-01-28T03:13:18.116Z,5.5
2023-01-28T03:15:17.845Z,5.199
2023-01-28T03:16:17.569Z,5.400
2023-01-28T03:17:17.485Z,5.199
2023-01-28T03:18:17.678Z,5.400
2023-01-28T03:19:17.508Z,5
2023-01-28T03:20:17.855Z,5.400
2023-01-28T03:21:17.983Z,5.199
2023-01-28T03:24:17.553Z,5.5
2023-01-28T03:25:18.045Z,5.400
2023-01-28T03:26:17.635Z,6
2023-01-28T03:27:17.271Z,5.5
2023-01-28T03:28:18.090Z,5.800
2023-01-28T03:29:18.025Z,6.300
2023-01-28T03:31:17.450Z,6.099
2023-01-28T03:32:17.845Z,6.199
2023-01-28T03:34:17.730Z,5.900
2023-01-28T03:35:17.870Z,6.199
2023-01-28T03:36:18.237Z,6.800
2023-01-28T03:38:17.445Z,6.699
2023-01-28T03:39:17.629Z,7
2023-01-28T03:40:18.000Z,7.099
2023-01-28T03:41:17.871Z,7
2023-01-28T03:42:18.204Z,7.199
2023-01-28T03:43:17.863Z,6.900
2023-01-28T03:44:17.789Z,7.099
2023-01-28T03:45:17.935Z,7.199
2023-01-28T03:46:17.089Z,6.800
2023-01-28T03:47:18.001Z,6.699
2023-01-28T03:49:17.228Z,6.800
2023-01-28T03:50:17.842Z,6.5
2023-01-28T03:51:17.446Z,6.900
2023-01-28T03:52:17.777Z,7.599
2023-01-28T03:53:17.479Z,7.699
2023-01-28T03:54:17.229Z,7.400
2023-01-28T03:55:18.046Z,7.300
2023-01-28T03:56:17.381Z,7.400
2023-01-28T03:58:17.207Z,7.699
2023-01-28T03:59:17.980Z,7.400
2023-01-28T04:00:18.525Z,7.699
2023-01-28T04:01:17.198Z,8.199
2023-01-28T04:02:17.828Z,8
2023-01-28T04:03:17.317Z,7.199
2023-01-28T04:04:17.243Z,7.400
2023-01-28T04:05:17.571Z,8
2023-01-28T04:06:17.463Z,7.900
2023-01-28T04:07:17.546Z,7.599
2023-01-28T04:08:18.019Z,7.699
2023-01-28T04:09:17.865Z,7.5
2023-01-28T04:10:18.401Z,7.199
2023-01-28T04:11:17.852Z,7.699
2023-01-28T04:12:17.825Z,8.100
2023-01-28T04:13:17.724Z,8.399
2023-01-28T04:14:18.409Z,8.100
2023-01-28T04:15:17.957Z,8.199
2023-01-28T04:16:17.994Z,8.5
2023-01-28T04:17:18.383Z,8.199
2023-01-28T04:18:17.974Z,8.100
2023-01-28T04:19:17.585Z,9
2023-01-28T04:20:17.852Z,8.300
2023-01-28T04:21:18.126Z,9
2023-01-28T04:22:18.109Z,9.100
2023-01-28T04:23:18.005Z,8.300
2023-01-28T04:24:18.206Z,8.899
2023-01-28T04:25:18.008Z,9.100
2023-01-28T04:26:17.492Z,9.199
2023-01-28T04:27:17.848Z,8.800
2023-01-28T04:28:17.527Z,8.399
2023-01-28T04:29:17.955Z,8.699
2023-01-28T04:30:17.635Z,9.100
2023-01-28T04:31:17.545Z,8.800
2023-01-28T04:32:17.413Z,8
2023-01-28T04:33:17.718Z,8.399
2023-01-28T04:34:16.915Z,9
2023-01-28T04:35:17.715Z,8.100
2023-01-28T04:36:17.011Z,9.100
2023-01-28T04:37:16.996Z,8.399
2023-01-28T04:38:17.317Z,8.199
2023-01-28T04:39:17.670Z,8.600
2023-01-28T04:40:17.303Z,8.399
2023-01-28T04:41:17.495Z,7.800
2023-01-28T04:42:17.818Z,8.5
2023-01-28T04:43:17.466Z,8.199
2023-01-28T04:44:17.595Z,8.100
2023-01-28T04:45:17.772Z,8.300
2023-01-28T04:46:17.312Z,7.599
2023-01-28T04:47:16.983Z,7.300
2023-01-28T04:48:17.299Z,8.100
2023-01-28T04:49:17.381Z,7.300
2023-01-28T04:50:18.060Z,7.400
2023-01-28T04:51:17.616Z,7.900
2023-01-28T04:52:17.917Z,7.599
2023-01-28T04:53:16.993Z,7.300
2023-01-28T04:54:17.331Z,7.400
2023-01-28T04:55:17.912Z,7.599
2023-01-28T04:56:17.145Z,7.199
2023-01-28T04:57:17.516Z,7.800
2023-01-28T04:58:17.624Z,7.900
2023-01-28T04:59:17.145Z,7.400
2023-01-28T05:00:18.362Z,7.699
2023-01-28T05:02:17.373Z,7.199
2023-01-28T05:03:17.259Z,7.5
2023-01-28T05:04:18.004Z,7.800
2023-01-28T05:06:17.809Z,8
2023-01-28T05:07:17.504Z,7.699
2023-01-28T05:09:17.713Z,8.399
2023-01-28T05:10:17.086Z,7.800
2023-01-28T05:11:17.877Z,8.199
2023-01-28T05:12:17.250Z,7.900
2023-01-28T05:13:17.479Z,7.699
2023-01-28T05:14:17.585Z,8.399
2023-01-28T05:15:17.956Z,8
2023-01-28T05:17:17.608Z,8.100
2023-01-28T05:18:17.221Z,7.699
2023-01-28T05:19:17.458Z,8.100
2023-01-28T05:20:17.811Z,7.900
2023-01-28T05:21:17.529Z,8.300
2023-01-28T05:22:17.314Z,8.399
2023-01-28T05:24:17.888Z,8.300
2023-01-28T05:25:17.822Z,8.100
2023-01-28T05:26:17.285Z,8
2023-01-28T05:27:17.446Z,8.300
2023-01-28T05:28:17.308Z,9
2023-01-28T05:29:17.789Z,8.399
2023-01-28T05:30:22.807Z,8.699
2023-01-28T05:31:17.369Z,8.300
2023-01-28T05:33:17.191Z,8.100
2023-01-28T05:34:17.409Z,7.699
2023-01-28T05:35:18.724Z,7.900
2023-01-28T05:36:17.672Z,7.599
2023-01-28T05:37:17.763Z,7.699
2023-01-28T05:38:17.362Z,7.5
2023-01-28T05:39:17.830Z,7.800
2023-01-28T05:40:17.934Z,7.699
2023-01-28T05:41:17.372Z,7.5
2023-01-28T05:42:17.895Z,6.900
2023-01-28T05:43:17.425Z,7.400
2023-01-28T05:44:17.320Z,7.5
2023-01-28T05:45:18.354Z,7.699
2023-01-28T05:46:17.999Z,7.300
2023-01-28T05:47:17.386Z,7.699
2023-01-28T05:48:18.141Z,8
2023-01-28T05:49:17.500Z,7.300
2023-01-28T05:50:18.198Z,7.800
2023-01-28T05:52:17.562Z,7.099
2023-01-28T05:53:17.412Z,7.800
2023-01-28T05:54:17.685Z,7.099
2023-01-28T05:56:17.162Z,7.5
2023-01-28T05:57:17.515Z,7.599
2023-01-28T05:58:17.385Z,7.300
2023-01-28T05:59:17.838Z,7.199
2023-01-28T06:01:17.767Z,7.699
2023-01-28T06:02:17.618Z,7.400
2023-01-28T06:03:17.424Z,8
2023-01-28T06:04:17.933Z,7.900
2023-01-28T06:05:17.545Z,8
2023-01-28T06:06:17.372Z,7.5
2023-01-28T06:07:17.888Z,7.400
2023-01-28T06:08:17.357Z,8.5
2023-01-28T06:09:17.174Z,7.5
2023-01-28T06:10:17.755Z,8.199
2023-01-28T06:11:19.015Z,7.599
2023-01-28T06:12:17.308Z,8.399
2023-01-28T06:13:17.547Z,7.699
2023-01-28T06:15:18.113Z,8
2023-01-28T06:16:17.297Z,8.100
2023-01-28T06:17:17.703Z,7.900
2023-01-28T06:18:17.221Z,8.300
2023-01-28T06:19:17.847Z,7.699
2023-01-28T06:20:17.966Z,8.199
2023-01-28T06:21:17.569Z,8.800
2023-01-28T06:22:17.222Z,8.399
2023-01-28T06:24:17.296Z,8.800
2023-01-28T06:26:17.790Z,9.300
2023-01-28T06:27:17.430Z,8.899
2023-01-28T06:28:17.514Z,9
2023-01-28T06:29:17.497Z,8.800
2023-01-28T06:30:17.882Z,8.699
2023-01-28T06:31:17.608Z,9.100
2023-01-28T06:32:18.079Z,9.399
2023-01-28T06:33:17.602Z,9.300
2023-01-28T06:35:17.692Z,9.100
2023-01-28T06:36:17.212Z,8.5
2023-01-28T06:37:17.833Z,8.899
2023-01-28T06:38:17.283Z,8.699
2023-01-28T06:39:17.314Z,8.600
2023-01-28T06:40:17.905Z,8.699
2023-01-28T06:41:17.094Z,8.100
2023-01-28T06:42:17.642Z,8.5
2023-01-28T06:43:17.158Z,8.399
2023-01-28T06:44:17.518Z,7.900
2023-01-28T06:46:17.202Z,7.300
2023-01-28T06:47:17.720Z,7
2023-01-28T06:48:17.269Z,7.099
2023-01-28T06:49:17.783Z,7.199
2023-01-28T06:50:17.842Z,7.400
2023-01-28T06:51:17.740Z,7
2023-01-28T06:52:17.508Z,7.599
2023-01-28T06:53:17.427Z,7.199
2023-01-28T06:54:17.502Z,6.900
2023-01-28T06:55:18.061Z,6.800
2023-01-28T06:56:18.020Z,6.900
2023-01-28T06:57:17.675Z,6.599
2023-01-28T06:58:16.865Z,6.400
2023-01-28T06:59:17.131Z,6.599
2023-01-28T07:01:17.096Z,6.699
2023-01-28T07:02:17.746Z,7.300
2023-01-28T07:03:17.260Z,6.300
2023-01-28T07:04:17.746Z,7.400
2023-01-28T07:05:17.351Z,6.599
2023-01-28T07:10:18.295Z,6.699
2023-01-28T07:11:17.777Z,6.800
2023-01-28T07:12:17.847Z,6.699
2023-01-28T07:13:17.554Z,6.599
2023-01-28T07:15:18.168Z,6.800
2023-01-28T07:16:17.741Z,6.5
2023-01-28T07:17:17.617Z,6.400
2023-01-28T07:19:17.840Z,6.800
2023-01-28T07:20:18.422Z,6.599
2023-01-28T07:21:17.577Z,6.800
2023-01-28T07:22:17.206Z,6.900
2023-01-28T07:23:17.796Z,6.599
2023-01-28T07:25:17.421Z,6.699
2023-01-28T07:26:17.202Z,6.599
2023-01-28T07:27:17.957Z,6.900
2023-01-28T07:29:17.497Z,7
2023-01-28T07:30:17.822Z,6.800
2023-01-28T07:31:17.370Z,7.099
2023-01-28T07:32:16.889Z,6.599
2023-01-28T07:33:17.521Z,6.699
2023-01-28T07:34:17.355Z,6.599
2023-01-28T07:35:17.857Z,7
2023-01-28T07:36:17.788Z,6.800
2023-01-28T07:37:17.383Z,7.199
2023-01-28T07:38:17.534Z,7.400
2023-01-28T07:39:17.728Z,6.5
2023-01-28T07:40:17.889Z,6.900
2023-01-28T07:41:17.634Z,6.699
2023-01-28T07:42:17.597Z,6.900
2023-01-28T07:43:17.651Z,7
2023-01-28T07:44:17.773Z,7.099
2023-01-28T07:45:17.821Z,6.599
2023-01-28T07:46:17.922Z,6.5
2023-01-28T07:47:18.031Z,6.300
2023-01-28T07:48:17.617Z,7
2023-01-28T07:50:17.942Z,6.599
2023-01-28T07:51:17.603Z,7
2023-01-28T07:52:17.522Z,6.800
2023-01-28T07:53:17.256Z,7.599
2023-01-28T07:54:18.245Z,7.199
2023-01-28T07:55:18.000Z,7.099
2023-01-28T07:56:17.826Z,7.599
2023-01-28T07:57:17.417Z,7.5
2023-01-28T07:59:18.088Z,7.599
2023-01-28T08:00:19.457Z,7.199
2023-01-28T08:01:17.810Z,7.900
2023-01-28T08:02:17.680Z,7.099
2023-01-28T08:03:18.281Z,7.300
2023-01-28T08:04:17.538Z,6.900
2023-01-28T08:05:18.239Z,7.800
2023-01-28T08:06:17.690Z,7.400
2023-01-28T08:07:18.216Z,7.5
2023-01-28T08:08:18.295Z,7.400
2023-01-28T08:10:18.208Z,7.599
2023-01-28T08:12:17.641Z,7.5
2023-01-28T08:13:17.428Z,7.699
2023-01-28T08:14:17.661Z,7.800
2023-01-28T08:15:17.475Z,8.100
2023-01-28T08:16:17.581Z,7.900
2023-01-28T08:17:17.622Z,8.100
2023-01-28T08:18:17.278Z,8.300
2023-01-28T08:19:18.139Z,8.199
2023-01-28T08:20:18.297Z,8.600
2023-01-28T08:21:17.655Z,9
2023-01-28T08:22:17.367Z,10.10
2023-01-28T08:23:17.525Z,9.800
2023-01-28T08:24:17.665Z,8.899
2023-01-28T08:26:17.337Z,8.399
2023-01-28T08:27:17.327Z,9.199
2023-01-28T08:28:17.436Z,9.100
2023-01-28T08:29:16.917Z,9.800
2023-01-28T08:30:17.789Z,10.5
2023-01-28T08:31:17.934Z,9.600
2023-01-28T08:32:17.418Z,9.699
2023-01-28T08:33:17.194Z,9.600
2023-01-28T08:34:17.827Z,10
2023-01-28T08:35:17.655Z,9.699
2023-01-28T08:36:17.767Z,10
2023-01-28T08:37:17.304Z,10.10
2023-01-28T08:38:18.066Z,9.699
2023-01-28T08:39:17.469Z,10.30
2023-01-28T08:40:17.768Z,9.899
2023-01-28T08:41:17.437Z,10.19
2023-01-28T08:42:17.982Z,10
2023-01-28T08:43:17.756Z,10.39
2023-01-28T08:44:17.032Z,10.30
2023-01-28T08:45:17.840Z,9.399
2023-01-28T08:46:17.508Z,9.699
2023-01-28T08:47:17.444Z,11
2023-01-28T08:48:16.869Z,11.39
2023-01-28T08:49:17.743Z,10.69
2023-01-28T08:50:17.476Z,10
2023-01-28T08:52:17.586Z,9.699
2023-01-28T08:53:17.209Z,9.600
2023-01-28T08:54:17.196Z,10.39
2023-01-28T08:55:18.221Z,10
2023-01-28T08:56:18.019Z,9.600
2023-01-28T08:57:17.664Z,9.199
2023-01-28T08:59:18.104Z,8.300
2023-01-28T09:00:19.035Z,8.800
2023-01-28T09:03:17.638Z,8.800
2023-01-28T09:04:17.268Z,9.300
2023-01-28T09:05:18.196Z,8.800
2023-01-28T09:06:17.389Z,8.399
2023-01-28T09:07:18.342Z,8.699
2023-01-28T09:08:17.241Z,9
2023-01-28T09:09:18.169Z,8.699
2023-01-28T09:10:18.270Z,8.5
2023-01-28T09:11:17.441Z,9.199
2023-01-28T09:12:17.343Z,8.199
2023-01-28T09:13:17.368Z,8.399
2023-01-28T09:14:17.075Z,7.900
2023-01-28T09:15:17.973Z,8.100
2023-01-28T09:16:17.773Z,8.899
2023-01-28T09:18:17.244Z,9.199
2023-01-28T09:19:17.470Z,9.800
2023-01-28T09:20:17.558Z,8.800
2023-01-28T09:21:17.402Z,8.600
2023-01-28T09:22:17.221Z,9.800
2023-01-28T09:23:17.877Z,10.30
2023-01-28T09:24:17.284Z,10.5
2023-01-28T09:25:17.451Z,9.399
2023-01-28T09:26:17.321Z,9.699
2023-01-28T09:27:17.241Z,9.399
2023-01-28T09:28:17.585Z,9.199
2023-01-28T09:29:17.416Z,8.699
2023-01-28T09:30:18.725Z,8.5
2023-01-28T09:31:18.152Z,8
2023-01-28T09:32:17.783Z,8.699
2023-01-28T09:33:18.168Z,8.5
2023-01-28T09:34:18.113Z,9
2023-01-28T09:35:17.964Z,8.899
2023-01-28T09:36:18.097Z,8.800
2023-01-28T09:37:18.723Z,8.899
2023-01-28T09:39:19.231Z,8.600
2023-01-28T09:41:19.161Z,8.5
2023-01-28T09:42:17.987Z,9.300
2023-01-28T09:43:19.058Z,9.199
2023-01-28T09:44:18.207Z,9.100
2023-01-28T09:45:18.936Z,10.19
2023-01-28T09:46:18.620Z,9.699
2023-01-28T09:47:18.841Z,9.199
2023-01-28T09:48:18.448Z,9.399
2023-01-28T09:49:19.144Z,10.30
2023-01-28T09:50:19.080Z,9.899
2023-01-28T09:51:19.063Z,9.399
2023-01-28T09:52:18.572Z,10.10
2023-01-28T09:53:18.807Z,10.5
2023-01-28T09:54:19.522Z,9.899
2023-01-28T09:55:19.209Z,10.30
2023-01-28T09:56:18.229Z,10.10
2023-01-28T09:57:18.537Z,10.30
2023-01-28T09:58:19.036Z,10.80
2023-01-28T09:59:17.844Z,10.69
2023-01-28T10:00:19.666Z,10.80
2023-01-28T10:01:18.076Z,10.89
2023-01-28T10:02:18.174Z,10.60
2023-01-28T10:03:18.015Z,11.10
2023-01-28T10:04:18.143Z,11.19
2023-01-28T10:05:17.958Z,11.30
2023-01-28T10:06:18.090Z,10.69
2023-01-28T10:07:17.877Z,11.39
2023-01-28T10:08:18.122Z,12.10
2023-01-28T10:09:17.888Z,12.80
2023-01-28T10:11:18.421Z,12.69
2023-01-28T10:12:17.617Z,13.89
2023-01-28T10:13:19.274Z,13.10
2023-01-28T10:14:18.117Z,13.60
2023-01-28T10:15:18.097Z,13.89
2023-01-28T10:16:17.615Z,14.30
2023-01-28T10:17:17.682Z,14.39
2023-01-28T10:18:18.493Z,14.19
2023-01-28T10:19:17.861Z,14.10
2023-01-28T10:21:18.149Z,14.39
2023-01-28T10:22:17.605Z,14
2023-01-28T10:23:17.583Z,13.5
2023-01-28T10:24:17.942Z,13.30
2023-01-28T10:25:18.141Z,13.19
2023-01-28T10:26:17.144Z,13.5
2023-01-28T10:27:17.937Z,13.19
2023-01-28T10:28:17.595Z,13
2023-01-28T10:29:17.706Z,12.39
2023-01-28T10:30:17.933Z,12.69
2023-01-28T10:31:18.350Z,12.5
2023-01-28T10:32:17.346Z,13.10
2023-01-28T10:33:17.452Z,12.80
2023-01-28T10:35:18.297Z,12.39
2023-01-28T10:37:18.083Z,12.89
2023-01-28T10:38:18.057Z,11.80
2023-01-28T10:39:18.628Z,12.10
2023-01-28T10:40:18.754Z,12.80
2023-01-28T10:41:18.086Z,11.89
2023-01-28T10:42:18.311Z,12.10
2023-01-28T10:43:17.593Z,12.39
2023-01-28T10:45:18.295Z,12.89
2023-01-28T10:46:17.797Z,12
2023-01-28T10:47:17.939Z,12.69
2023-01-28T10:49:18.072Z,12.10
2023-01-28T10:50:18.700Z,13.10
2023-01-28T10:51:18.072Z,12.80
2023-01-28T10:52:18.016Z,13.10
2023-01-28T10:53:18.397Z,13.80
2023-01-28T10:54:18.098Z,12.5
2023-01-28T10:55:18.501Z,12.80
2023-01-28T10:56:17.662Z,13.30
2023-01-28T10:57:17.904Z,11.80
2023-01-28T10:58:18.042Z,12.5
2023-01-28T10:59:18.111Z,12.69
2023-01-28T11:00:19.435Z,13.10
2023-01-28T11:01:18.369Z,13.19
2023-01-28T11:02:17.955Z,13.10
2023-01-28T11:03:17.958Z,13
2023-01-28T11:04:18.126Z,13.89
2023-01-28T11:05:17.642Z,13.5
2023-01-28T11:06:17.624Z,12.89
2023-01-28T11:07:17.667Z,13.30
2023-01-28T11:08:17.577Z,13.60
2023-01-28T11:09:17.679Z,12.89
2023-01-28T11:10:17.796Z,13.10
2023-01-28T11:11:18.116Z,13.60
2023-01-28T11:12:18.497Z,13.69
2023-01-28T11:13:17.796Z,13.5
2023-01-28T11:15:18.117Z,13.30
2023-01-28T11:16:18.234Z,12.80
2023-01-28T11:17:18.154Z,12.19
2023-01-28T11:19:17.883Z,12.30
2023-01-28T11:20:17.894Z,11.80
2023-01-28T11:21:18.089Z,11.39
2023-01-28T11:22:17.454Z,11.80
2023-01-28T11:23:17.897Z,13
2023-01-28T11:24:18.298Z,12.5
2023-01-28T11:25:18.135Z,12.30
2023-01-28T11:26:17.960Z,12.10
2023-01-28T11:27:17.889Z,12
2023-01-28T11:28:17.683Z,11.5
2023-01-28T11:29:17.958Z,11.39
2023-01-28T11:30:18.266Z,10.80
2023-01-28T11:31:18.260Z,11.10
2023-01-28T11:32:18.136Z,11.60
2023-01-28T11:34:18.051Z,12
2023-01-28T11:35:18.528Z,12.80
2023-01-28T11:36:17.643Z,12.89
2023-01-28T11:37:18.072Z,12.80
2023-01-28T11:38:17.493Z,13.69
2023-01-28T11:39:17.827Z,13.19
2023-01-28T11:40:20.614Z,13.30
2023-01-28T11:41:17.547Z,12.39
2023-01-28T11:42:17.576Z,12.30
2023-01-28T11:43:17.823Z,13
2023-01-28T11:44:17.930Z,12.5
2023-01-28T11:45:18.549Z,13.19
2023-01-28T11:46:18.020Z,12.89
2023-01-28T11:47:18.432Z,13.10
2023-01-28T11:49:17.697Z,12.89
2023-01-28T11:50:18.510Z,13.30
2023-01-28T11:51:17.890Z,13
2023-01-28T11:52:18.462Z,13.5
2023-01-28T11:53:18.073Z,13.39
2023-01-28T11:54:18.082Z,13.80
2023-01-28T11:55:18.191Z,14
2023-01-28T11:56:18.047Z,13.5
2023-01-28T11:57:17.918Z,13.19
2023-01-28T11:58:17.984Z,14.10
2023-01-28T11:59:18.107Z,13
2023-01-28T12:00:18.748Z,13.5
2023-01-28T12:01:18.085Z,13.89
2023-01-28T12:02:17.885Z,14.10
2023-01-28T12:03:18.029Z,13.60
2023-01-28T12:04:17.724Z,13.39
2023-01-28T12:05:18.140Z,13.69
2023-01-28T12:06:17.964Z,14.39
2023-01-28T12:07:18.058Z,15.10
2023-01-28T12:08:17.625Z,14
2023-01-28T12:09:18.194Z,14.69
2023-01-28T12:10:18.148Z,14.19
2023-01-28T12:11:18.065Z,14
2023-01-28T12:12:18.190Z,14.39
2023-01-28T12:13:18.149Z,14.10
2023-01-28T12:14:19.088Z,14.19
2023-01-28T12:15:18.439Z,13.5
2023-01-28T12:16:18.823Z,13.10
2023-01-28T12:17:18.118Z,13.60
2023-01-28T12:18:17.744Z,13.30
2023-01-28T12:19:18.604Z,14.10
2023-01-28T12:20:18.623Z,14.5
2023-01-28T12:21:18.350Z,13.30
2023-01-28T12:22:17.875Z,13.5
2023-01-28T12:23:18.142Z,13
2023-01-28T12:24:17.730Z,12.89
2023-01-28T12:25:18.239Z,13.30
2023-01-28T12:26:17.418Z,13.60
2023-01-28T12:29:18.764Z,14.10
2023-01-28T12:30:18.789Z,13.80
2023-01-28T12:31:18.269Z,14.19
2023-01-28T12:32:18.683Z,14.10
2023-01-28T12:33:19.000Z,13.69
2023-01-28T12:34:18.039Z,14.19
2023-01-28T12:35:18.896Z,15.10
2023-01-28T12:36:18.269Z,14.89
2023-01-28T12:37:18.290Z,14.69
2023-01-28T12:38:18.331Z,14.80
2023-01-28T12:41:17.761Z,15.5
2023-01-28T12:42:17.666Z,14.80
2023-01-28T12:43:18.642Z,14.39
2023-01-28T12:44:18.237Z,13.80
2023-01-28T12:45:17.904Z,13.69
2023-01-28T12:47:18.556Z,13.39
2023-01-28T12:48:18.797Z,13.19
2023-01-28T12:49:18.338Z,14.60
2023-01-28T12:50:18.605Z,14
2023-01-28T12:51:18.257Z,14.10
2023-01-28T12:52:18.325Z,14.19
2023-01-28T12:53:18.432Z,14.69
2023-01-28T12:54:18.303Z,14.60
2023-01-28T12:55:18.544Z,13.89
2023-01-28T12:57:18.132Z,14
2023-01-28T12:58:18.073Z,14.30
2023-01-28T12:59:18.351Z,13.89
2023-01-28T13:01:18.411Z,13.80
2023-01-28T13:02:19.299Z,13.30
2023-01-28T13:03:18.774Z,13.69
2023-01-28T13:04:18.770Z,14.10
2023-01-28T13:05:32.983Z,14.60
2023-01-28T13:06:18.569Z,13.30
2023-01-28T13:07:18.473Z,13.69
2023-01-28T13:08:18.693Z,13.5
2023-01-28T13:09:18.897Z,14
2023-01-28T13:10:18.509Z,12.39
2023-01-28T13:11:18.291Z,13.10
2023-01-28T13:13:18.584Z,12.60
2023-01-28T13:14:18.498Z,13.39
2023-01-28T13:15:18.810Z,13.10
2023-01-28T13:16:21.304Z,12.80
2023-01-28T13:17:18.140Z,14
2023-01-28T13:18:18.389Z,13.39
2023-01-28T13:19:18.050Z,14.60
2023-01-28T13:20:18.104Z,15.10
2023-01-28T13:21:17.782Z,14.80
2023-01-28T13:24:18.161Z,15.19
2023-01-28T13:25:18.305Z,15.60
2023-01-28T13:26:18.096Z,15
2023-01-28T13:27:17.964Z,15.30
2023-01-28T13:28:17.586Z,15.10
2023-01-28T13:29:39.911Z,15.5
2023-01-28T13:30:18.691Z,15.39
2023-01-28T13:31:18.118Z,15.30
2023-01-28T13:32:17.667Z,15.5
2023-01-28T13:33:17.645Z,15.39
2023-01-28T13:34:18.096Z,14.89
2023-01-28T13:36:18.258Z,14.69
2023-01-28T13:38:18.322Z,14.30
2023-01-28T13:39:18.386Z,13.5
2023-01-28T13:40:18.376Z,13.10
2023-01-28T13:41:18.387Z,13.60
2023-01-28T13:42:18.236Z,13.89
2023-01-28T13:43:18.262Z,13.39
2023-01-28T13:44:17.935Z,13.19
2023-01-28T13:45:18.854Z,13.10
2023-01-28T13:46:17.757Z,13.5
2023-01-28T13:47:17.927Z,13.19
2023-01-28T13:48:18.560Z,13.30
2023-01-28T13:49:19.166Z,12.39
2023-01-28T13:50:18.114Z,13.10
2023-01-28T13:51:17.662Z,12.89
2023-01-28T13:52:17.872Z,11.60
2023-01-28T13:53:18.053Z,13.30
2023-01-28T13:54:18.201Z,12.69
2023-01-28T13:55:33.282Z,13.30
2023-01-28T13:56:18.017Z,13.60
2023-01-28T13:57:18.309Z,13
2023-01-28T13:58:18.421Z,12.69
2023-01-28T13:59:18.424Z,12.19
2023-01-28T14:00:21.171Z,12.10
2023-01-28T14:01:18.591Z,12.60
2023-01-28T14:02:18.418Z,11.10
2023-01-28T14:03:17.988Z,11
2023-01-28T14:04:18.368Z,11.10
2023-01-28T14:05:18.981Z,12.69
2023-01-28T14:06:17.860Z,12.10
2023-01-28T14:07:18.718Z,12.89
2023-01-28T14:08:18.044Z,13.89
2023-01-28T14:09:20.060Z,12.89
2023-01-28T14:11:17.720Z,13.39
2023-01-28T14:12:17.185Z,12.10
2023-01-28T14:13:17.748Z,13.60
2023-01-28T14:14:18.140Z,13.10
2023-01-28T14:15:18.524Z,12.5
2023-01-28T14:16:18.274Z,12.10
2023-01-28T14:17:18.032Z,12.60
2023-01-28T14:18:18.008Z,12.80
2023-01-28T14:19:17.888Z,13.19
2023-01-28T14:20:18.803Z,13
2023-01-28T14:21:17.950Z,13.39
2023-01-28T14:22:18.144Z,12.89
2023-01-28T14:23:17.739Z,13.39
2023-01-28T14:24:18.503Z,13.5
2023-01-28T14:25:18.491Z,13.19
2023-01-28T14:26:17.964Z,13.89
2023-01-28T14:27:18.385Z,14.10
2023-01-28T14:28:17.975Z,13.60
2023-01-28T14:29:17.982Z,13.39
2023-01-28T14:30:18.828Z,14.30
2023-01-28T14:31:18.299Z,14.19
2023-01-28T14:32:18.355Z,14
2023-01-28T14:33:18.554Z,13.30
2023-01-28T14:34:18.591Z,13.5
2023-01-28T14:35:18.411Z,12.30
2023-01-28T14:36:18.584Z,13.60
2023-01-28T14:38:18.934Z,14.10
2023-01-28T14:39:19.345Z,13.80
2023-01-28T14:40:18.994Z,14.60
2023-01-28T14:41:18.509Z,14.39
2023-01-28T14:42:18.439Z,13.5
2023-01-28T14:43:18.385Z,13.10